Time;durP1;ratioP1;P1;durP2;ratioP2;P2;SDS_P1;SDS_P2;PMS_P1;PMS_P2;Temp;Humidity;BMP_temperature;BMP_pressure;BME280_temperature;BME280_humidity;BME280_pressure;Samples;Min_cycle;Max_cycle;Signal;HPM_P1;HPM_P2
2022/10/03 00:02:27;;;;;;;;;;;22.40;88.00;;;;;;5073476;28;19927;-86
2022/10/03 00:04:59;;;;;;;;;;;22.10;88.60;;;;;;5072982;28;19948;-83
2022/10/03 00:07:25;;;;;;;;;;;21.80;89.70;;;;;;5052111;28;19920;-87
2022/10/03 00:09:55;;;;;;;;;;;22.00;90.00;;;;;;5063820;28;19913;-87
2022/10/03 00:12:41;;;;;;;;;;;22.80;90.70;;;;;;5078491;28;19908;-85
2022/10/03 00:15:13;;;;;;;;;;;23.90;89.70;;;;;;5063789;28;19952;-88
2022/10/03 00:17:46;;;;;;;;;;;23.80;86.00;;;;;;5072890;28;19965;-88
2022/10/03 00:20:31;;;;;;;;;;;23.80;86.50;;;;;;5065345;28;20006;-87
2022/10/03 00:23:08;;;;;;;;;;;24.30;87.40;;;;;;5073271;28;19972;-85
2022/10/03 00:25:37;;;;;;;;;;;24.70;87.90;;;;;;5074659;28;20003;-84
2022/10/03 00:28:13;;;;;;;;;;;25.40;84.40;;;;;;5065417;28;19909;-87
2022/10/03 00:30:52;;;;;;;;;;;26.10;84.20;;;;;;5058756;28;19958;-88
2022/10/03 00:33:18;;;;;;;;;;;26.50;83.80;;;;;;5062367;28;20335;-87
2022/10/03 00:35:51;;;;;;;;;;;26.50;82.80;;;;;;5064432;28;19915;-87
2022/10/03 00:38:34;;;;;;;;;;;26.40;80.90;;;;;;5067367;28;19912;-91
2022/10/03 00:41:08;;;;;;;;;;;26.70;80.30;;;;;;5070860;28;19909;-85
2022/10/03 00:43:38;;;;;;;;;;;26.30;78.00;;;;;;5059782;28;20034;-94
2022/10/03 00:46:14;;;;;;;;;;;25.50;79.50;;;;;;5071755;28;19919;-77
2022/10/03 00:49:13;;;;;;;;;;;25.10;81.30;;;;;;5066911;28;19926;-86
2022/10/03 00:52:05;;;;;;;;;;;25.10;82.00;;;;;;5035981;28;19999;-81
2022/10/03 00:54:40;;;;;;;;;;;25.50;81.30;;;;;;5073354;28;19923;-84
2022/10/03 00:57:16;;;;;;;;;;;25.70;79.40;;;;;;5074259;28;19919;-82
2022/10/03 01:00:09;;;;;;;;;;;25.80;80.20;;;;;;5070772;28;20306;-75
2022/10/03 01:02:39;;;;;;;;;;;25.90;78.30;;;;;;5069974;28;19916;-77
2022/10/03 01:05:08;;;;;;;;;;;25.90;78.50;;;;;;5074826;28;20018;-82
2022/10/03 01:07:53;;;;;;;;;;;25.70;78.30;;;;;;5068615;28;20004;-79
2022/10/03 01:10:29;;;;;;;;;;;25.60;77.20;;;;;;5056118;28;19909;-81
2022/10/03 01:12:56;;;;;;;;;;;25.60;79.30;;;;;;5062441;28;20038;-83
2022/10/03 01:15:31;;;;;;;;;;;25.50;78.00;;;;;;5066243;28;19965;-77
2022/10/03 01:18:10;;;;;;;;;;;25.20;78.50;;;;;;5072873;28;19912;-80
2022/10/03 01:20:42;;;;;;;;;;;24.00;79.40;;;;;;5070119;28;19927;-80
2022/10/03 01:23:31;;;;;;;;;;;23.10;80.80;;;;;;5064996;28;19920;-81
2022/10/03 01:25:58;;;;;;;;;;;22.50;83.20;;;;;;5041357;28;19915;-83
2022/10/03 01:31:31;;;;;;;;;;;22.60;81.50;;;;;;5068318;28;19918;-76
2022/10/03 01:33:57;;;;;;;;;;;23.20;81.50;;;;;;5068243;28;19920;-80
2022/10/03 01:36:50;;;;;;;;;;;23.70;81.10;;;;;;5081295;28;20259;-77
2022/10/03 01:39:46;;;;;;;;;;;23.80;79.60;;;;;;5055313;28;19913;-85
2022/10/03 01:42:17;;;;;;;;;;;23.80;79.40;;;;;;5037631;28;19916;-76
2022/10/03 01:44:44;;;;;;;;;;;23.90;81.60;;;;;;5056034;28;20274;-84
2022/10/03 01:47:24;;;;;;;;;;;24.30;82.20;;;;;;5065426;28;19912;-82
2022/10/03 01:49:55;;;;;;;;;;;24.40;78.20;;;;;;5070688;28;20282;-76
2022/10/03 01:52:22;;;;;;;;;;;23.70;79.10;;;;;;5070836;28;19916;-78
2022/10/03 01:54:49;;;;;;;;;;;23.60;80.50;;;;;;5070266;28;19908;-84
2022/10/03 01:57:20;;;;;;;;;;;23.40;80.70;;;;;;5090492;28;20472;-87
2022/10/03 01:59:46;;;;;;;;;;;23.30;81.20;;;;;;5061896;28;20286;-77
2022/10/03 02:02:24;;;;;;;;;;;23.30;82.30;;;;;;5065730;28;19924;-84
2022/10/03 02:05:02;;;;;;;;;;;23.10;80.40;;;;;;5065657;28;19999;-80
2022/10/03 02:07:42;;;;;;;;;;;22.60;81.20;;;;;;5067239;28;19908;-80
2022/10/03 02:10:26;;;;;;;;;;;22.20;81.50;;;;;;5067517;28;20396;-80
2022/10/03 02:13:04;;;;;;;;;;;21.70;81.40;;;;;;5067951;28;19924;-84
2022/10/03 02:15:42;;;;;;;;;;;21.40;82.80;;;;;;5087805;28;19908;-80
2022/10/03 02:18:27;;;;;;;;;;;21.30;84.20;;;;;;5067106;28;20270;-86
2022/10/03 02:21:17;;;;;;;;;;;21.40;84.20;;;;;;5083202;28;19958;-86
2022/10/03 02:23:45;;;;;;;;;;;21.60;85.10;;;;;;5063001;28;20339;-76
2022/10/03 02:26:20;;;;;;;;;;;21.60;82.30;;;;;;5076221;28;19905;-84
2022/10/03 02:29:05;;;;;;;;;;;21.60;83.80;;;;;;5074192;28;19916;-83
2022/10/03 02:31:55;;;;;;;;;;;21.60;84.50;;;;;;5076177;28;19940;-78
2022/10/03 02:34:34;;;;;;;;;;;22.50;84.80;;;;;;5063748;28;19924;-81
2022/10/03 02:37:15;;;;;;;;;;;23.60;79.50;;;;;;5066015;28;19909;-86
2022/10/03 02:39:49;;;;;;;;;;;24.30;82.90;;;;;;5063468;28;20425;-78
2022/10/03 02:42:18;;;;;;;;;;;25.20;79.30;;;;;;5070414;28;19985;-86
2022/10/03 02:44:54;;;;;;;;;;;25.90;75.50;;;;;;5056608;28;19954;-83
2022/10/03 02:47:30;;;;;;;;;;;26.20;76.20;;;;;;5072998;28;19908;-77
2022/10/03 02:49:57;;;;;;;;;;;26.70;76.20;;;;;;5069966;28;19947;-82
2022/10/03 02:52:26;;;;;;;;;;;26.90;78.40;;;;;;5071207;28;20340;-78
2022/10/03 02:55:13;;;;;;;;;;;27.20;76.30;;;;;;5058626;28;20371;-84
2022/10/03 02:57:49;;;;;;;;;;;26.90;75.40;;;;;;5080850;28;19927;-88
2022/10/03 03:00:33;;;;;;;;;;;26.60;74.80;;;;;;5083297;28;19912;-79
2022/10/03 03:03:18;;;;;;;;;;;25.20;76.20;;;;;;5090188;28;19917;-80
2022/10/03 03:06:03;;;;;;;;;;;24.20;77.40;;;;;;5057860;28;19909;-83
2022/10/03 03:08:53;;;;;;;;;;;23.40;78.70;;;;;;5068798;28;19943;-81
2022/10/03 03:11:26;;;;;;;;;;;23.30;78.50;;;;;;5064447;28;19916;-87
2022/10/03 03:14:11;;;;;;;;;;;22.70;79.70;;;;;;5060824;28;20291;-76
2022/10/03 03:16:37;;;;;;;;;;;22.40;80.40;;;;;;5071482;28;19966;-76
2022/10/03 03:19:11;;;;;;;;;;;22.10;81.00;;;;;;5064305;28;19916;-76
2022/10/03 03:21:46;;;;;;;;;;;22.10;81.80;;;;;;5057269;28;19912;-73
2022/10/03 03:24:42;;;;;;;;;;;22.10;81.00;;;;;;5065329;28;19918;-84
2022/10/03 03:27:08;;;;;;;;;;;22.00;81.10;;;;;;5012490;28;19944;-87
2022/10/03 03:29:35;;;;;;;;;;;21.90;80.50;;;;;;5063194;28;20398;-80
2022/10/03 03:32:11;;;;;;;;;;;21.70;82.10;;;;;;5086793;28;20414;-85
2022/10/03 03:34:48;;;;;;;;;;;21.50;83.00;;;;;;5075254;28;19925;-80
2022/10/03 03:37:51;;;;;;;;;;;21.40;82.60;;;;;;5063123;28;19971;-78
2022/10/03 03:40:17;;;;;;;;;;;21.30;82.80;;;;;;5057041;28;19913;-78
2022/10/03 03:42:53;;;;;;;;;;;21.30;82.60;;;;;;5067910;28;20394;-84
2022/10/03 03:45:30;;;;;;;;;;;21.20;82.50;;;;;;5063154;28;19913;-84
2022/10/03 03:48:15;;;;;;;;;;;21.30;83.30;;;;;;5069451;28;20011;-85
2022/10/03 03:50:59;;;;;;;;;;;21.40;83.10;;;;;;5059250;28;19908;-77
2022/10/03 03:53:37;;;;;;;;;;;21.50;83.80;;;;;;5063919;28;20043;-82
2022/10/03 03:56:04;;;;;;;;;;;21.50;82.80;;;;;;5080430;28;19957;-77
2022/10/03 03:58:51;;;;;;;;;;;21.30;81.40;;;;;;5059616;28;19916;-78
2022/10/03 04:01:18;;;;;;;;;;;21.10;82.50;;;;;;5069480;28;19912;-82
2022/10/03 04:03:48;;;;;;;;;;;21.10;84.80;;;;;;5071253;28;19997;-81
2022/10/03 04:06:35;;;;;;;;;;;21.10;82.10;;;;;;5078881;28;19912;-78
2022/10/03 04:09:07;;;;;;;;;;;21.20;83.60;;;;;;5060147;28;20359;-78
2022/10/03 04:11:52;;;;;;;;;;;21.30;82.10;;;;;;5062382;28;19948;-76
2022/10/03 04:14:27;;;;;;;;;;;21.20;83.40;;;;;;5061188;28;20051;-83
2022/10/03 04:20:03;;;;;;;;;;;21.20;84.20;;;;;;5019246;28;19960;-81
2022/10/03 04:22:35;;;;;;;;;;;21.00;83.80;;;;;;5081118;28;19920;-78
2022/10/03 04:25:14;;;;;;;;;;;20.90;83.80;;;;;;5068602;28;20359;-75
2022/10/03 04:27:50;;;;;;;;;;;21.30;84.30;;;;;;5062567;28;19912;-82
2022/10/03 04:30:28;;;;;;;;;;;22.10;84.00;;;;;;5061311;28;19978;-80
2022/10/03 04:33:13;;;;;;;;;;;22.80;82.60;;;;;;5059720;28;19946;-82
2022/10/03 04:36:08;;;;;;;;;;;23.20;81.20;;;;;;5062132;28;19989;-75
2022/10/03 04:38:38;;;;;;;;;;;23.60;82.50;;;;;;5036900;28;19993;-79
2022/10/03 04:41:08;;;;;;;;;;;23.80;80.10;;;;;;5054878;28;19908;-76
2022/10/03 04:43:42;;;;;;;;;;;23.80;78.90;;;;;;5068170;28;19916;-79
2022/10/03 04:46:24;;;;;;;;;;;23.80;79.30;;;;;;5066860;28;19927;-81
2022/10/03 04:49:22;;;;;;;;;;;23.60;77.50;;;;;;5067171;28;19913;-81
2022/10/03 04:52:01;;;;;;;;;;;23.30;78.70;;;;;;5028587;28;19908;-76
2022/10/03 04:54:31;;;;;;;;;;;23.10;78.90;;;;;;5073955;28;19994;-82
2022/10/03 04:57:16;;;;;;;;;;;23.10;78.30;;;;;;5069684;28;19944;-83
2022/10/03 04:59:45;;;;;;;;;;;22.90;79.10;;;;;;5062570;28;19913;-78
2022/10/03 05:02:28;;;;;;;;;;;22.60;80.50;;;;;;5069096;28;19939;-82
2022/10/03 05:05:04;;;;;;;;;;;22.70;79.50;;;;;;5076376;28;19908;-82
2022/10/03 05:07:49;;;;;;;;;;;22.70;79.90;;;;;;5085662;28;20262;-80
2022/10/03 05:10:54;;;;;;;;;;;22.80;79.40;;;;;;5071562;28;20259;-80
2022/10/03 05:13:38;;;;;;;;;;;23.00;79.10;;;;;;4993297;28;19918;-80
2022/10/03 05:16:17;;;;;;;;;;;23.00;79.80;;;;;;5059861;28;19931;-82
2022/10/03 05:18:51;;;;;;;;;;;23.00;79.50;;;;;;5064840;28;19918;-78
2022/10/03 05:21:27;;;;;;;;;;;23.00;78.80;;;;;;5050519;28;19923;-80
2022/10/03 05:24:14;;;;;;;;;;;22.80;79.20;;;;;;5065381;28;20317;-78
2022/10/03 05:26:49;;;;;;;;;;;22.60;79.20;;;;;;5070479;28;19907;-82
2022/10/03 05:29:22;;;;;;;;;;;22.40;80.30;;;;;;5069692;28;19915;-84
2022/10/03 05:31:56;;;;;;;;;;;22.20;81.20;;;;;;5062414;28;20262;-79
2022/10/03 05:34:28;;;;;;;;;;;22.00;81.00;;;;;;5055114;28;19924;-82
2022/10/03 05:36:55;;;;;;;;;;;21.80;82.30;;;;;;5050442;28;19920;-80
2022/10/03 05:39:25;;;;;;;;;;;21.50;82.80;;;;;;5072128;28;19908;-77
2022/10/03 05:41:59;;;;;;;;;;;21.10;82.70;;;;;;5062044;28;19921;-81
2022/10/03 05:44:32;;;;;;;;;;;20.90;83.60;;;;;;5048254;28;19908;-82
2022/10/03 05:47:43;;;;;;;;;;;20.90;83.80;;;;;;5062088;28;20006;-84
2022/10/03 05:50:06;;;;;;;;;;;20.70;84.30;;;;;;5069133;28;19923;-79
2022/10/03 05:52:41;;;;;;;;;;;20.80;85.30;;;;;;5084839;28;19959;-77
2022/10/03 05:55:31;;;;;;;;;;;21.10;84.70;;;;;;5070819;28;19908;-84
2022/10/03 05:58:16;;;;;;;;;;;21.40;84.20;;;;;;5007167;28;20498;-82
2022/10/03 06:01:01;;;;;;;;;;;21.70;83.60;;;;;;5053614;28;19915;-83
2022/10/03 06:03:29;;;;;;;;;;;21.90;82.50;;;;;;5068028;28;19920;-83
2022/10/03 06:06:02;;;;;;;;;;;22.00;83.30;;;;;;5042914;28;19919;-80
2022/10/03 06:08:41;;;;;;;;;;;22.20;82.60;;;;;;5081214;28;19916;-80
2022/10/03 06:11:10;;;;;;;;;;;22.20;81.60;;;;;;5059533;28;20047;-79
2022/10/03 06:13:45;;;;;;;;;;;22.10;82.50;;;;;;5050680;28;19924;-81
2022/10/03 06:16:21;;;;;;;;;;;22.20;82.00;;;;;;5065352;28;20022;-83
2022/10/03 06:18:57;;;;;;;;;;;22.10;81.00;;;;;;5052609;28;19974;-84
2022/10/03 06:21:31;;;;;;;;;;;21.80;81.60;;;;;;5061216;28;20039;-81
2022/10/03 06:24:16;;;;;;;;;;;21.50;82.90;;;;;;5071980;28;19912;-81
2022/10/03 06:26:42;;;;;;;;;;;21.30;82.40;;;;;;5066253;28;19970;-83
2022/10/03 06:29:09;;;;;;;;;;;21.20;83.90;;;;;;5060181;28;20279;-84
2022/10/03 06:31:54;;;;;;;;;;;21.10;83.50;;;;;;5072961;28;19944;-82
2022/10/03 06:34:20;;;;;;;;;;;21.00;83.50;;;;;;5061387;28;20409;-79
2022/10/03 06:37:05;;;;;;;;;;;20.80;82.30;;;;;;5065366;28;19920;-83
2022/10/03 06:39:45;;;;;;;;;;;20.60;83.00;;;;;;5059655;28;19912;-82
2022/10/03 06:42:11;;;;;;;;;;;20.40;83.30;;;;;;5068259;28;20248;-86
2022/10/03 06:44:39;;;;;;;;;;;20.20;83.60;;;;;;5066364;28;20416;-80
2022/10/03 06:47:06;;;;;;;;;;;20.10;84.60;;;;;;5065513;28;19912;-82
2022/10/03 06:49:45;;;;;;;;;;;19.90;85.70;;;;;;5066829;28;19954;-82
2022/10/03 06:52:21;;;;;;;;;;;19.80;85.10;;;;;;5055537;28;19916;-83
2022/10/03 06:54:51;;;;;;;;;;;19.90;85.00;;;;;;5071833;28;19912;-81
2022/10/03 06:57:36;;;;;;;;;;;20.00;84.40;;;;;;5068609;28;19919;-81
2022/10/03 07:00:10;;;;;;;;;;;20.10;84.40;;;;;;5057607;28;19908;-80
2022/10/03 07:02:49;;;;;;;;;;;20.10;84.00;;;;;;5052976;28;19920;-78
2022/10/03 07:05:24;;;;;;;;;;;20.10;84.40;;;;;;5062046;28;19912;-80
2022/10/03 07:08:04;;;;;;;;;;;20.20;85.80;;;;;;5059327;28;19908;-84
2022/10/03 07:10:40;;;;;;;;;;;20.30;84.00;;;;;;5065635;28;19908;-83
2022/10/03 07:13:15;;;;;;;;;;;20.30;85.10;;;;;;5059722;28;19919;-81
2022/10/03 07:16:01;;;;;;;;;;;20.30;84.80;;;;;;5059855;28;20611;-82
2022/10/03 07:18:34;;;;;;;;;;;20.30;84.50;;;;;;5047373;28;19930;-81
2022/10/03 07:21:13;;;;;;;;;;;20.30;85.20;;;;;;5059114;28;19912;-81
2022/10/03 07:24:01;;;;;;;;;;;20.20;83.80;;;;;;5072775;28;20030;-83
2022/10/03 07:26:40;;;;;;;;;;;20.10;85.30;;;;;;5065263;28;20382;-85
2022/10/03 07:29:19;;;;;;;;;;;20.00;86.70;;;;;;5072661;28;19958;-87
2022/10/03 07:31:46;;;;;;;;;;;19.70;88.30;;;;;;5078183;28;21223;-87
2022/10/03 07:34:31;;;;;;;;;;;19.50;89.60;;;;;;5058711;28;19923;-83
2022/10/03 07:39:55;;;;;;;;;;;19.20;90.40;;;;;;5072343;28;20018;-82
2022/10/03 07:42:37;;;;;;;;;;;18.90;90.50;;;;;;5067900;28;19927;-84
2022/10/03 07:45:07;;;;;;;;;;;18.80;90.60;;;;;;5066421;28;19915;-86
2022/10/03 07:47:37;;;;;;;;;;;18.60;90.90;;;;;;5058293;28;19909;-77
2022/10/03 07:50:20;;;;;;;;;;;18.50;91.20;;;;;;5096928;28;20355;-82
2022/10/03 07:52:47;;;;;;;;;;;18.40;91.50;;;;;;5073289;28;19916;-82
2022/10/03 07:55:32;;;;;;;;;;;18.20;91.60;;;;;;5078653;28;19951;-83
2022/10/03 07:58:18;;;;;;;;;;;18.20;91.60;;;;;;5070501;28;19915;-83
2022/10/03 08:00:50;;;;;;;;;;;18.00;91.90;;;;;;5062472;28;19909;-83
2022/10/03 08:03:32;;;;;;;;;;;17.90;92.00;;;;;;5061959;28;20679;-82
2022/10/03 08:05:59;;;;;;;;;;;17.80;92.30;;;;;;5073774;28;19952;-81
2022/10/03 08:08:41;;;;;;;;;;;17.70;92.20;;;;;;5068357;28;19908;-82
2022/10/03 08:11:12;;;;;;;;;;;17.60;92.50;;;;;;5063404;28;19916;-84
2022/10/03 08:13:42;;;;;;;;;;;17.50;92.70;;;;;;5069231;28;19912;-85
2022/10/03 08:16:28;;;;;;;;;;;17.40;92.90;;;;;;5059686;28;19992;-85
2022/10/03 08:18:55;;;;;;;;;;;17.40;92.80;;;;;;5058958;28;20250;-79
2022/10/03 08:21:25;;;;;;;;;;;17.40;92.90;;;;;;5071474;28;19909;-78
2022/10/03 08:24:10;;;;;;;;;;;17.20;93.10;;;;;;5069615;28;19934;-80
2022/10/03 08:26:56;;;;;;;;;;;17.10;93.20;;;;;;5065051;28;19957;-81
2022/10/03 08:29:46;;;;;;;;;;;17.00;93.40;;;;;;5073434;28;20317;-79
2022/10/03 08:32:22;;;;;;;;;;;16.90;93.40;;;;;;5074620;28;20257;-80
2022/10/03 08:34:54;;;;;;;;;;;16.80;93.50;;;;;;5076308;28;19963;-81
2022/10/03 08:37:39;;;;;;;;;;;16.70;93.70;;;;;;5072634;28;20317;-81
2022/10/03 08:40:24;;;;;;;;;;;16.60;93.80;;;;;;5085050;28;19908;-78
2022/10/03 08:43:09;;;;;;;;;;;16.60;93.70;;;;;;5061416;28;19916;-79
2022/10/03 08:45:41;;;;;;;;;;;16.50;93.70;;;;;;5073995;28;19918;-79
2022/10/03 08:48:11;;;;;;;;;;;16.50;93.70;;;;;;5075586;28;19966;-79
2022/10/03 08:50:53;;;;;;;;;;;16.40;93.70;;;;;;5057446;28;20322;-78
2022/10/03 08:53:35;;;;;;;;;;;16.40;93.60;;;;;;5053267;28;19951;-78
2022/10/03 08:56:06;;;;;;;;;;;16.40;93.70;;;;;;5054674;28;19913;-81
2022/10/03 08:58:51;;;;;;;;;;;16.40;93.80;;;;;;5075975;28;19947;-81
2022/10/03 09:01:40;;;;;;;;;;;16.40;94.00;;;;;;5065167;28;20317;-80
2022/10/03 09:04:25;;;;;;;;;;;16.30;93.90;;;;;;5073851;28;19912;-77
2022/10/03 09:07:00;;;;;;;;;;;16.30;93.80;;;;;;5066035;28;19919;-78
2022/10/03 09:09:27;;;;;;;;;;;16.30;94.00;;;;;;5061064;28;19917;-78
2022/10/03 09:12:13;;;;;;;;;;;16.30;93.90;;;;;;5065246;28;19908;-78
2022/10/03 09:14:43;;;;;;;;;;;16.20;93.90;;;;;;5078701;28;19923;-78
2022/10/03 09:17:28;;;;;;;;;;;16.20;94.20;;;;;;5069533;28;19998;-76
2022/10/03 09:20:20;;;;;;;;;;;16.10;94.30;;;;;;5063733;28;19919;-77
2022/10/03 09:22:53;;;;;;;;;;;16.00;94.70;;;;;;5034709;28;19928;-76
2022/10/03 09:25:39;;;;;;;;;;;15.90;94.60;;;;;;5068620;28;19919;-77
2022/10/03 09:28:08;;;;;;;;;;;15.90;94.60;;;;;;5081673;28;19912;-77
2022/10/03 09:30:38;;;;;;;;;;;15.80;94.80;;;;;;5070736;28;20023;-77
2022/10/03 09:33:23;;;;;;;;;;;15.70;94.80;;;;;;5070730;28;20381;-74
2022/10/03 09:35:55;;;;;;;;;;;15.70;95.10;;;;;;5069852;28;19918;-76
2022/10/03 09:38:40;;;;;;;;;;;15.60;94.90;;;;;;5058834;28;19908;-75
2022/10/03 09:41:27;;;;;;;;;;;15.60;94.90;;;;;;5057645;28;19908;-75
2022/10/03 09:43:55;;;;;;;;;;;15.60;95.00;;;;;;5071481;28;19912;-75
2022/10/03 09:46:22;;;;;;;;;;;15.50;95.10;;;;;;5069917;28;19965;-76
2022/10/03 09:48:51;;;;;;;;;;;15.50;95.20;;;;;;5056283;28;20011;-75
2022/10/03 09:51:30;;;;;;;;;;;15.40;95.30;;;;;;5058394;28;19909;-76
2022/10/03 09:54:15;;;;;;;;;;;15.40;95.30;;;;;;5052611;28;21944;-76
2022/10/03 09:56:57;;;;;;;;;;;15.30;95.50;;;;;;5054392;28;20651;-77
2022/10/03 09:59:42;;;;;;;;;;;15.20;95.90;;;;;;5054039;28;19934;-78
2022/10/03 10:02:18;;;;;;;;;;;15.10;96.00;;;;;;5070420;28;19930;-78
2022/10/03 10:04:54;;;;;;;;;;;15.10;95.90;;;;;;5069173;28;20073;-75
2022/10/03 10:07:46;;;;;;;;;;;15.10;96.00;;;;;;5061249;28;19931;-76
2022/10/03 10:10:45;;;;;;;;;;;15.10;95.90;;;;;;5051687;28;19964;-75
2022/10/03 10:13:27;;;;;;;;;;;15.10;96.00;;;;;;5015278;28;19913;-74
2022/10/03 10:16:12;;;;;;;;;;;15.00;96.40;;;;;;5053296;28;19917;-77
2022/10/03 10:18:48;;;;;;;;;;;15.00;96.80;;;;;;5069308;28;20352;-75
2022/10/03 10:21:21;;;;;;;;;;;14.90;96.80;;;;;;5071146;28;19912;-75
2022/10/03 10:23:59;;;;;;;;;;;14.80;97.20;;;;;;5065546;28;20529;-76
2022/10/03 10:26:49;;;;;;;;;;;14.70;97.20;;;;;;5062187;28;19912;-75
2022/10/03 10:29:28;;;;;;;;;;;14.60;97.60;;;;;;5022507;28;19920;-75
2022/10/03 10:32:18;;;;;;;;;;;14.60;97.70;;;;;;5060384;28;19916;-75
2022/10/03 10:35:14;;;;;;;;;;;14.60;97.80;;;;;;5056848;28;20022;-77
2022/10/03 10:37:53;;;;;;;;;;;14.50;98.20;;;;;;5009298;28;20698;-77
2022/10/03 10:40:36;;;;;;;;;;;14.50;98.20;;;;;;5071693;28;20283;-77
2022/10/03 10:43:18;;;;;;;;;;;14.40;98.40;;;;;;5061823;28;19916;-79
2022/10/03 10:46:05;;;;;;;;;;;14.30;98.70;;;;;;5057665;28;19916;-76
2022/10/03 10:48:50;;;;;;;;;;;14.30;98.90;;;;;;5061306;28;19918;-75
2022/10/03 10:51:32;;;;;;;;;;;14.30;99.00;;;;;;5056706;28;19928;-77
2022/10/03 10:54:18;;;;;;;;;;;14.30;98.90;;;;;;5055316;28;20294;-77
2022/10/03 10:57:02;;;;;;;;;;;14.30;98.90;;;;;;5074683;28;19961;-78
2022/10/03 10:59:55;;;;;;;;;;;14.30;98.90;;;;;;5077849;28;20620;-81
2022/10/03 11:02:41;;;;;;;;;;;14.20;99.00;;;;;;5053717;28;19916;-79
2022/10/03 11:05:28;;;;;;;;;;;14.20;99.20;;;;;;5055248;28;20363;-83
2022/10/03 11:08:13;;;;;;;;;;;14.20;99.20;;;;;;5064201;28;20264;-77
2022/10/03 11:10:51;;;;;;;;;;;14.10;99.20;;;;;;5059915;28;19916;-76
2022/10/03 11:13:17;;;;;;;;;;;14.00;99.30;;;;;;5056642;28;19912;-78
2022/10/03 11:15:56;;;;;;;;;;;13.90;99.70;;;;;;5059233;28;19908;-76
2022/10/03 11:18:41;;;;;;;;;;;13.80;99.90;;;;;;5056346;28;19913;-78
2022/10/03 11:21:23;;;;;;;;;;;13.80;99.90;;;;;;5063467;28;19934;-77
2022/10/03 11:23:59;;;;;;;;;;;13.70;99.90;;;;;;5059076;28;20051;-80
2022/10/03 11:26:25;;;;;;;;;;;13.60;99.90;;;;;;5071412;28;19917;-83
2022/10/03 11:29:01;;;;;;;;;;;13.60;99.90;;;;;;5070960;28;19909;-79
2022/10/03 11:31:33;;;;;;;;;;;13.50;99.90;;;;;;5070586;28;19935;-84
2022/10/03 11:34:32;;;;;;;;;;;13.40;99.90;;;;;;5039664;28;19917;-81
2022/10/03 11:37:17;;;;;;;;;;;13.40;99.90;;;;;;5035705;28;19913;-78
2022/10/03 11:39:44;;;;;;;;;;;13.30;99.90;;;;;;5019597;28;20057;-78
2022/10/03 11:42:24;;;;;;;;;;;13.30;99.90;;;;;;5030934;28;20007;-78
2022/10/03 11:45:01;;;;;;;;;;;13.30;99.90;;;;;;5024087;28;19909;-77
2022/10/03 11:47:43;;;;;;;;;;;13.30;99.90;;;;;;5031620;28;20383;-77
2022/10/03 11:50:15;;;;;;;;;;;13.20;99.90;;;;;;5015866;28;19921;-78
2022/10/03 11:52:42;;;;;;;;;;;13.20;99.90;;;;;;5034752;28;19928;-81
2022/10/03 11:55:24;;;;;;;;;;;13.20;99.90;;;;;;5041342;28;19909;-78
2022/10/03 11:58:03;;;;;;;;;;;13.20;99.90;;;;;;5022203;28;19952;-77
2022/10/03 12:00:32;;;;;;;;;;;13.20;99.90;;;;;;5029136;28;19921;-79
2022/10/03 12:03:25;;;;;;;;;;;13.20;99.90;;;;;;5028959;28;20633;-77
2022/10/03 12:08:53;;;;;;;;;;;13.30;99.90;;;;;;5037144;28;19923;-79
2022/10/03 12:08:56;;;;;;;;;;;13.40;99.90;;;;;;5033671;28;19909;-80
2022/10/03 12:11:25;;;;;;;;;;;13.40;99.90;;;;;;5031679;28;19909;-78
2022/10/03 12:13:58;;;;;;;;;;;13.40;99.90;;;;;;5020551;28;20277;-77
2022/10/03 12:16:26;;;;;;;;;;;13.40;99.90;;;;;;5024357;28;20004;-79
2022/10/03 12:19:16;;;;;;;;;;;13.40;99.90;;;;;;5030027;28;20284;-80
2022/10/03 12:21:42;;;;;;;;;;;13.30;99.90;;;;;;5024315;28;19959;-79
2022/10/03 12:24:23;;;;;;;;;;;13.20;99.90;;;;;;5035793;28;19913;-79
2022/10/03 12:27:08;;;;;;;;;;;13.10;99.90;;;;;;5023599;28;19962;-79
2022/10/03 12:29:37;;;;;;;;;;;13.10;99.90;;;;;;5033582;28;19917;-78
2022/10/03 12:32:12;;;;;;;;;;;13.00;99.90;;;;;;5030247;28;20348;-79
2022/10/03 12:34:54;;;;;;;;;;;12.90;99.90;;;;;;5080157;28;19920;-81
2022/10/03 12:37:31;;;;;;;;;;;12.80;99.90;;;;;;5092658;28;19994;-80
2022/10/03 12:40:00;;;;;;;;;;;12.70;99.90;;;;;;5073598;28;19919;-78
2022/10/03 12:42:47;;;;;;;;;;;12.70;99.90;;;;;;5054813;28;19926;-80
2022/10/03 12:45:26;;;;;;;;;;;12.60;99.90;;;;;;5073185;28;19936;-80
2022/10/03 12:48:02;;;;;;;;;;;12.50;99.90;;;;;;5064725;28;19908;-79
2022/10/03 12:50:42;;;;;;;;;;;12.40;99.90;;;;;;5053389;28;19923;-80
2022/10/03 12:53:22;;;;;;;;;;;12.40;99.90;;;;;;5075299;28;20395;-77
2022/10/03 12:56:01;;;;;;;;;;;12.40;99.90;;;;;;5068556;28;19999;-79
2022/10/03 12:58:30;;;;;;;;;;;12.40;99.90;;;;;;5079812;28;20278;-81
2022/10/03 13:01:12;;;;;;;;;;;12.40;99.90;;;;;;5086826;28;19916;-77
2022/10/03 13:03:39;;;;;;;;;;;12.30;99.90;;;;;;5070381;28;20359;-79
2022/10/03 13:06:24;;;;;;;;;;;12.30;99.90;;;;;;5072473;28;19919;-78
2022/10/03 13:09:03;;;;;;;;;;;12.30;99.90;;;;;;5081389;28;19943;-81
2022/10/03 13:11:49;;;;;;;;;;;12.30;99.90;;;;;;5087499;28;20310;-78
2022/10/03 13:14:16;;;;;;;;;;;12.20;99.90;;;;;;5053522;28;19917;-78
2022/10/03 13:17:16;;;;;;;;;;;12.10;99.90;;;;;;5072843;28;19913;-78
2022/10/03 13:19:50;;;;;;;;;;;12.10;99.90;;;;;;5029875;28;19908;-79
2022/10/03 13:22:29;;;;;;;;;;;12.10;99.90;;;;;;5061973;28;19920;-82
2022/10/03 13:25:01;;;;;;;;;;;12.10;99.90;;;;;;5067039;28;19927;-81
2022/10/03 13:27:31;;;;;;;;;;;12.10;99.90;;;;;;5069730;28;20414;-81
2022/10/03 13:30:16;;;;;;;;;;;12.00;99.90;;;;;;5063632;28;19911;-81
2022/10/03 13:32:56;;;;;;;;;;;11.90;99.90;;;;;;5071571;28;19916;-80
2022/10/03 13:38:30;;;;;;;;;;;11.80;99.90;;;;;;5068407;28;19977;-79
2022/10/03 13:41:11;;;;;;;;;;;11.80;99.90;;;;;;5066731;28;19916;-79
2022/10/03 13:43:39;;;;;;;;;;;11.80;99.90;;;;;;5074580;28;19955;-75
2022/10/03 13:46:18;;;;;;;;;;;11.70;99.90;;;;;;5072586;28;19908;-76
2022/10/03 13:48:52;;;;;;;;;;;11.70;99.90;;;;;;5070783;28;19927;-76
2022/10/03 13:51:20;;;;;;;;;;;11.70;99.90;;;;;;5081932;28;19908;-77
2022/10/03 13:53:55;;;;;;;;;;;11.60;99.90;;;;;;5070323;28;19954;-80
2022/10/03 13:56:23;;;;;;;;;;;11.60;99.90;;;;;;5053845;28;19981;-77
2022/10/03 13:58:53;;;;;;;;;;;11.60;99.90;;;;;;5076376;28;19916;-81
2022/10/03 14:01:23;;;;;;;;;;;11.60;99.90;;;;;;5073044;28;19915;-84
2022/10/03 14:04:08;;;;;;;;;;;11.50;99.90;;;;;;5068759;28;20553;-81
2022/10/03 14:06:50;;;;;;;;;;;11.40;99.90;;;;;;5062022;28;20064;-82
2022/10/03 14:09:36;;;;;;;;;;;11.40;99.90;;;;;;5072887;28;19924;-82
2022/10/03 14:12:09;;;;;;;;;;;11.30;99.90;;;;;;5079536;28;19945;-74
2022/10/03 14:14:44;;;;;;;;;;;11.30;99.90;;;;;;5072920;28;19908;-80
2022/10/03 14:17:11;;;;;;;;;;;11.30;99.90;;;;;;5072274;28;20500;-80
2022/10/03 14:19:52;;;;;;;;;;;11.20;99.90;;;;;;5071758;28;19955;-80
2022/10/03 14:22:18;;;;;;;;;;;11.20;99.90;;;;;;5069536;28;20428;-77
2022/10/03 14:25:02;;;;;;;;;;;11.20;99.90;;;;;;5073899;28;19908;-81
2022/10/03 14:27:40;;;;;;;;;;;11.10;99.90;;;;;;5065886;28;19922;-79
2022/10/03 14:30:10;;;;;;;;;;;11.00;99.90;;;;;;5058706;28;19912;-79
2022/10/03 14:32:48;;;;;;;;;;;11.00;99.90;;;;;;5067460;28;19932;-77
2022/10/03 14:35:15;;;;;;;;;;;11.00;99.90;;;;;;5058200;28;19987;-75
2022/10/03 14:37:52;;;;;;;;;;;10.90;99.90;;;;;;5071701;28;20339;-78
2022/10/03 14:40:37;;;;;;;;;;;10.90;99.90;;;;;;5070715;28;19904;-78
2022/10/03 14:43:03;;;;;;;;;;;10.90;99.90;;;;;;5055299;28;19917;-77
2022/10/03 14:45:32;;;;;;;;;;;10.90;99.90;;;;;;5068179;28;19909;-76
2022/10/03 14:48:04;;;;;;;;;;;10.90;99.90;;;;;;5075874;28;19978;-78
2022/10/03 14:50:31;;;;;;;;;;;10.80;99.90;;;;;;5077717;28;19908;-77
2022/10/03 14:53:05;;;;;;;;;;;10.80;99.90;;;;;;5083482;28;19919;-80
2022/10/03 14:55:36;;;;;;;;;;;10.70;99.90;;;;;;5091576;28;19904;-78
2022/10/03 14:58:15;;;;;;;;;;;10.70;99.90;;;;;;5079074;28;19947;-74
2022/10/03 15:00:44;;;;;;;;;;;10.70;99.90;;;;;;5085868;28;19961;-81
2022/10/03 15:03:32;;;;;;;;;;;10.70;99.90;;;;;;5066902;28;20031;-80
2022/10/03 15:06:18;;;;;;;;;;;10.70;99.90;;;;;;5059642;28;19904;-78
2022/10/03 15:08:50;;;;;;;;;;;10.60;99.90;;;;;;5057918;28;20003;-76
2022/10/03 15:11:22;;;;;;;;;;;10.60;99.90;;;;;;5064403;28;19912;-77
2022/10/03 15:13:53;;;;;;;;;;;10.60;99.90;;;;;;5083299;28;19912;-77
2022/10/03 15:16:21;;;;;;;;;;;10.60;99.90;;;;;;5051594;28;19936;-81
2022/10/03 15:19:04;;;;;;;;;;;10.60;99.90;;;;;;5072860;28;19908;-79
2022/10/03 15:21:31;;;;;;;;;;;10.60;99.90;;;;;;5055092;28;20426;-79
2022/10/03 15:24:00;;;;;;;;;;;10.60;99.90;;;;;;5077991;28;20267;-80
2022/10/03 15:26:31;;;;;;;;;;;10.60;99.90;;;;;;5091308;28;19982;-79
2022/10/03 15:28:59;;;;;;;;;;;10.60;99.90;;;;;;5091654;28;19911;-81